Main page
METAR-TAF:

METAR-TAF

Airports :

Zahedan Airport

Zahedan, Iran

latitude: 29-28N, longitude: 060-53E, elevation: 1370 m

Current weather observation

The report was made 41 minutes ago, at 22:00 UTC
Wind 4 kt from the South
Temperature 25°C
Humidity 24%
Pressure 1009 hPa
Visibility: 8000 m

METAR: OIZH 052200Z 19004KT 8000 NSC 25/03 Q1008 A2979

Time: 03:11 (22:41 UTC)

Forecast

The report was made 5 hours and 11 minutes ago, at 17:30 UTC
Forecast valid from 05 at 18 UTC to 06 at 24 UTC
Wind 10 kt from the Northeast
Visibility: 7000 m
Few clouds at a height of 4000 ft
Temporary
from 06 at 09 UTC to 06 at 18 UTC
Wind 16 kt from the North/Northeast with gusts up to 26 kt
Visibility: 2000 m
Few clouds at a height of 3500 ft, Cumulonimbus.
Scattered clouds at a height of 10000 ft

TAF: OIZH 051730Z 0518/0624 05010KT 7000 FEW040 TEMPO 0609/0618 03016G26KT 2000 SA/DU FEW035CB SCT100

Weather observations and forecasts of more than 4000 airports (METAR and TAF reports).

The available stations are represented by yellow and red dots on the map.

Hover mouse over dot to see the name of the station.

Then click to see weather observations and forecasts.

To change the map : click on the green buttons with a black cross to zoom in, on the green button with a dash to zoom out, or on the green arrows for adjacent maps.


METAR-TAF: